createdAt,value
2018-05-09T00:00:28.552Z,12.80
2018-05-09T00:02:56.137Z,12.80
2018-05-09T00:05:23.694Z,12.80
2018-05-09T00:07:51.278Z,12.80
2018-05-09T00:10:18.842Z,12.80
2018-05-09T00:12:46.489Z,12.80
2018-05-09T00:15:14.834Z,12.90
2018-05-09T00:17:42.467Z,12.80
2018-05-09T00:20:10.108Z,12.80
2018-05-09T00:22:37.841Z,12.80
2018-05-09T00:25:05.421Z,12.80
2018-05-09T00:27:33.003Z,12.80
2018-05-09T00:30:00.565Z,12.70
2018-05-09T00:32:28.150Z,12.70
2018-05-09T00:34:56.485Z,12.80
2018-05-09T00:37:24.086Z,12.80
2018-05-09T00:39:51.654Z,12.70
2018-05-09T00:42:19.231Z,12.70
2018-05-09T00:44:46.830Z,12.70
2018-05-09T00:47:14.440Z,12.60
2018-05-09T00:49:42.062Z,12.70
2018-05-09T00:52:09.677Z,12.60
2018-05-09T00:54:37.394Z,12.60
2018-05-09T00:57:05.542Z,12.60
2018-05-09T00:59:33.944Z,12.60
2018-05-09T01:02:01.513Z,12.60
2018-05-09T01:04:29.865Z,12.60
2018-05-09T01:06:57.424Z,12.50
2018-05-09T01:09:25.011Z,12.60
2018-05-09T01:11:52.578Z,12.60
2018-05-09T01:14:20.161Z,12.60
2018-05-09T01:16:47.742Z,12.50
2018-05-09T01:19:15.350Z,12.30
2018-05-09T01:21:42.941Z,12.30
2018-05-09T01:24:10.525Z,12.20
2018-05-09T01:26:38.167Z,12.20
2018-05-09T01:29:05.742Z,12.30
2018-05-09T01:31:33.326Z,12.40
2018-05-09T01:34:00.886Z,12.50
2018-05-09T01:36:28.465Z,12.50
2018-05-09T01:38:56.031Z,12.60
2018-05-09T01:41:23.618Z,12.50
2018-05-09T01:43:51.173Z,12.50
2018-05-09T01:46:18.758Z,12.50
2018-05-09T01:48:46.330Z,12.40
2018-05-09T01:51:13.944Z,12.40
2018-05-09T01:53:41.550Z,12.40
2018-05-09T01:56:09.968Z,12.40
2018-05-09T01:58:37.574Z,12.40
2018-05-09T02:01:05.194Z,12.40
2018-05-09T02:03:33.525Z,11.90
2018-05-09T02:06:01.094Z,11.90
2018-05-09T02:08:28.678Z,11.60
2018-05-09T02:10:56.242Z,11.60
2018-05-09T02:13:23.835Z,11.60
2018-05-09T02:15:52.074Z,11.50
2018-05-09T02:18:19.652Z,11.50
2018-05-09T02:20:47.221Z,11.70
2018-05-09T02:23:14.814Z,11.90
2018-05-09T02:25:42.407Z,12.00
2018-05-09T02:28:10.012Z,12.20
2018-05-09T02:30:37.606Z,12.20
2018-05-09T02:33:05.233Z,12.40
2018-05-09T02:35:33.589Z,12.40
2018-05-09T02:38:01.210Z,12.40
2018-05-09T02:40:28.866Z,12.40
2018-05-09T02:42:56.433Z,12.40
2018-05-09T02:45:24.022Z,12.40
2018-05-09T02:47:51.593Z,12.30
2018-05-09T02:50:19.176Z,12.30
2018-05-09T02:52:46.742Z,12.30
2018-05-09T02:55:14.354Z,12.30
2018-05-09T02:57:41.943Z,12.30
2018-05-09T03:00:09.537Z,11.90
2018-05-09T03:02:37.202Z,11.60
2018-05-09T03:05:04.825Z,11.40
2018-05-09T03:07:33.162Z,10.80
2018-05-09T03:10:00.743Z,10.80
2018-05-09T03:12:28.301Z,10.60
2018-05-09T03:14:55.873Z,10.30
2018-05-09T03:17:23.440Z,10.10
2018-05-09T03:19:51.001Z,10.50
2018-05-09T03:22:18.582Z,10.90
2018-05-09T03:24:46.134Z,11.00
2018-05-09T03:27:15.349Z,10.70
2018-05-09T03:29:43.002Z,10.70
2018-05-09T03:32:11.457Z,10.90
2018-05-09T03:34:39.060Z,11.30
2018-05-09T03:37:06.870Z,11.60
2018-05-09T03:39:34.560Z,11.80
2018-05-09T03:42:02.338Z,12.00
2018-05-09T03:44:29.894Z,12.10
2018-05-09T03:46:57.469Z,12.00
2018-05-09T03:49:25.049Z,11.60
2018-05-09T03:51:52.625Z,11.10
2018-05-09T03:54:20.188Z,10.90
2018-05-09T03:56:47.794Z,11.20
2018-05-09T03:59:15.362Z,11.60
2018-05-09T04:01:54.961Z,11.80
2018-05-09T04:04:35.081Z,12.00
2018-05-09T04:07:14.529Z,12.00
2018-05-09T04:09:57.288Z,12.00
2018-05-09T04:12:24.869Z,11.70
2018-05-09T04:14:52.463Z,11.40
2018-05-09T04:17:20.802Z,11.20
2018-05-09T04:19:48.362Z,11.20
2018-05-09T04:22:15.962Z,10.90
2018-05-09T04:24:44.399Z,10.70
2018-05-09T04:27:12.765Z,10.40
2018-05-09T04:29:41.156Z,10.20
2018-05-09T04:32:08.853Z,10.20
2018-05-09T04:34:36.499Z,10.20
2018-05-09T04:37:04.879Z,10.20
2018-05-09T04:39:33.337Z,10.30
2018-05-09T04:42:00.916Z,10.30
2018-05-09T04:44:28.690Z,10.40
2018-05-09T04:46:56.313Z,10.80
2018-05-09T04:49:23.894Z,11.00
2018-05-09T04:51:52.226Z,11.80
2018-05-09T04:54:19.806Z,11.80
2018-05-09T04:56:47.419Z,12.10
2018-05-09T04:59:15.871Z,12.50
2018-05-09T05:01:44.862Z,12.50
2018-05-09T05:04:13.393Z,12.60
2018-05-09T05:06:41.001Z,12.70
2018-05-09T05:09:08.640Z,12.80
2018-05-09T05:11:37.071Z,13.00
2018-05-09T05:14:04.694Z,13.00
2018-05-09T05:16:32.299Z,13.00
2018-05-09T05:19:00.645Z,13.20
2018-05-09T05:21:28.237Z,13.20
2018-05-09T05:23:55.797Z,13.20
2018-05-09T05:26:23.382Z,13.30
2018-05-09T05:28:50.949Z,13.40
2018-05-09T05:31:18.566Z,13.30
2018-05-09T05:33:46.893Z,13.40
2018-05-09T05:36:20.161Z,13.40
2018-05-09T05:38:48.559Z,13.40
2018-05-09T05:41:16.085Z,13.40
2018-05-09T05:43:43.699Z,13.40
2018-05-09T05:46:11.308Z,13.50
2018-05-09T05:48:38.971Z,13.60
2018-05-09T05:51:06.614Z,13.70
2018-05-09T05:53:34.232Z,13.80
2018-05-09T05:56:01.904Z,13.80
2018-05-09T05:58:31.513Z,13.90
2018-05-09T06:00:59.121Z,14.00
2018-05-09T06:03:27.563Z,14.00
2018-05-09T06:05:55.134Z,14.00
2018-05-09T06:08:23.499Z,14.10
2018-05-09T06:10:51.066Z,14.10
2018-05-09T06:13:18.629Z,14.40
2018-05-09T06:15:46.229Z,14.70
2018-05-09T06:18:13.836Z,14.80
2018-05-09T06:20:41.439Z,14.90
2018-05-09T06:23:09.042Z,15.20
2018-05-09T06:25:37.448Z,15.30
2018-05-09T06:28:05.894Z,15.40
2018-05-09T06:30:33.506Z,15.40
2018-05-09T06:33:01.870Z,15.70
2018-05-09T06:35:29.470Z,15.70
2018-05-09T06:37:57.810Z,15.50
2018-05-09T06:40:25.419Z,15.50
2018-05-09T06:42:52.987Z,15.40
2018-05-09T06:45:20.555Z,15.50
2018-05-09T06:47:48.141Z,15.60
2018-05-09T06:50:15.731Z,15.60
2018-05-09T06:52:44.113Z,15.90
2018-05-09T06:55:12.668Z,16.20
2018-05-09T06:57:40.306Z,16.20
2018-05-09T07:00:07.947Z,16.50
2018-05-09T07:02:35.620Z,16.40
2018-05-09T07:05:03.967Z,16.80
2018-05-09T07:07:31.550Z,16.80
2018-05-09T07:09:59.203Z,17.10
2018-05-09T07:12:26.879Z,17.10
2018-05-09T07:14:54.439Z,16.70
2018-05-09T07:17:22.019Z,16.80
2018-05-09T07:19:50.470Z,17.10
2018-05-09T07:22:18.075Z,16.80
2018-05-09T07:24:45.682Z,16.90
2018-05-09T07:27:13.313Z,17.10
2018-05-09T07:29:42.079Z,17.40
2018-05-09T07:32:10.483Z,17.60
2018-05-09T07:34:39.026Z,17.40
2018-05-09T07:37:06.676Z,17.30
2018-05-09T07:39:35.257Z,17.10
2018-05-09T07:42:03.623Z,16.70
2018-05-09T07:44:31.294Z,16.60
2018-05-09T07:46:58.863Z,16.20
2018-05-09T07:49:26.462Z,15.90
2018-05-09T07:51:54.029Z,16.50
2018-05-09T07:54:21.605Z,16.40
2018-05-09T07:56:49.162Z,15.90
2018-05-09T07:59:16.808Z,15.70
2018-05-09T08:01:44.412Z,15.80
2018-05-09T08:04:12.045Z,16.40
2018-05-09T08:06:39.761Z,16.50
2018-05-09T08:09:08.274Z,16.40
2018-05-09T08:11:36.879Z,15.90
2018-05-09T08:14:04.570Z,15.90
2018-05-09T08:16:32.170Z,16.00
2018-05-09T08:18:59.735Z,16.00
2018-05-09T08:21:27.314Z,15.70
2018-05-09T08:23:54.900Z,15.50
2018-05-09T08:26:22.486Z,15.40
2018-05-09T08:28:50.054Z,15.30
2018-05-09T08:31:17.674Z,15.40
2018-05-09T08:33:45.323Z,15.60
2018-05-09T08:36:13.820Z,15.90
2018-05-09T08:38:41.433Z,15.80
2018-05-09T08:41:09.176Z,15.80
2018-05-09T08:43:37.199Z,15.90
2018-05-09T08:46:05.116Z,15.70
2018-05-09T08:48:32.829Z,15.60
2018-05-09T08:51:00.395Z,15.60
2018-05-09T08:53:28.738Z,16.00
2018-05-09T08:55:56.298Z,15.90
2018-05-09T08:58:23.873Z,16.20
2018-05-09T09:00:51.438Z,16.40
2018-05-09T09:03:19.019Z,16.20
2018-05-09T09:05:46.588Z,15.90
2018-05-09T09:08:14.170Z,15.60
2018-05-09T09:10:41.749Z,15.50
2018-05-09T09:13:09.358Z,15.90
2018-05-09T09:15:37.766Z,16.90
2018-05-09T09:18:05.330Z,16.90
2018-05-09T09:20:32.893Z,17.20
2018-05-09T09:23:01.243Z,17.20
2018-05-09T09:25:28.806Z,17.20
2018-05-09T09:27:56.411Z,17.80
2018-05-09T09:30:23.974Z,18.20
2018-05-09T09:32:51.550Z,18.40
2018-05-09T09:35:19.146Z,18.80
2018-05-09T09:37:47.530Z,18.50
2018-05-09T09:40:15.969Z,18.50
2018-05-09T09:42:43.601Z,18.40
2018-05-09T09:45:11.250Z,18.10
2018-05-09T09:47:39.084Z,18.10
2018-05-09T09:50:07.034Z,18.00
2018-05-09T09:52:34.679Z,17.70
2018-05-09T09:55:02.327Z,18.30
2018-05-09T09:57:29.881Z,18.80
2018-05-09T09:59:57.459Z,18.80
2018-05-09T10:02:25.029Z,18.90
2018-05-09T10:04:52.607Z,18.80
2018-05-09T10:07:20.166Z,19.40
2018-05-09T10:09:47.803Z,19.50
2018-05-09T10:12:15.395Z,19.30
2018-05-09T10:14:43.025Z,19.80
2018-05-09T10:17:10.781Z,19.80
2018-05-09T10:19:38.591Z,18.80
2018-05-09T10:22:06.412Z,17.70
2018-05-09T10:24:34.167Z,17.10
2018-05-09T10:27:01.771Z,17.30
2018-05-09T10:29:29.325Z,17.30
2018-05-09T10:31:57.669Z,17.20
2018-05-09T10:34:25.241Z,17.20
2018-05-09T10:36:52.841Z,17.50
2018-05-09T10:39:20.406Z,17.40
2018-05-09T10:41:48.014Z,17.60
2018-05-09T10:44:15.628Z,17.30
2018-05-09T10:46:44.239Z,17.50
2018-05-09T10:49:11.911Z,17.50
2018-05-09T10:51:39.844Z,17.80
2018-05-09T10:54:07.577Z,17.70
2018-05-09T10:56:35.939Z,17.90
2018-05-09T10:59:04.290Z,18.60
2018-05-09T11:01:31.948Z,18.50
2018-05-09T11:03:59.504Z,18.70
2018-05-09T11:06:27.091Z,19.30
2018-05-09T11:08:54.641Z,18.70
2018-05-09T11:11:22.199Z,19.40
2018-05-09T11:13:49.785Z,19.40
2018-05-09T11:16:17.407Z,19.70
2018-05-09T11:18:45.049Z,19.00
2018-05-09T11:21:13.477Z,17.50
2018-05-09T11:23:41.669Z,17.50
2018-05-09T11:26:09.844Z,17.20
2018-05-09T11:28:38.787Z,17.90
2018-05-09T11:31:07.778Z,18.00
2018-05-09T11:33:35.832Z,18.50
2018-05-09T11:36:03.505Z,19.60
2018-05-09T11:38:31.858Z,18.80
2018-05-09T11:40:59.430Z,18.80
2018-05-09T11:43:27.026Z,19.10
2018-05-09T11:45:54.586Z,18.40
2018-05-09T11:48:22.250Z,18.40
2018-05-09T11:50:49.826Z,18.80
2018-05-09T11:53:17.444Z,19.10
2018-05-09T11:55:45.060Z,19.00
2018-05-09T11:58:12.702Z,18.50
2018-05-09T12:00:40.675Z,18.80
2018-05-09T12:03:08.574Z,18.60
2018-05-09T12:05:37.382Z,19.30
2018-05-09T12:08:05.882Z,19.60
2018-05-09T12:10:33.678Z,19.60
2018-05-09T12:13:01.146Z,20.20
2018-05-09T12:15:28.726Z,19.90
2018-05-09T12:17:56.297Z,19.40
2018-05-09T12:20:25.363Z,19.50
2018-05-09T12:22:52.959Z,19.40
2018-05-09T12:25:20.514Z,18.50
2018-05-09T12:27:48.196Z,18.10
2018-05-09T12:30:15.902Z,18.10
2018-05-09T12:32:44.625Z,19.20
2018-05-09T12:35:12.992Z,19.00
2018-05-09T12:37:41.254Z,19.00
2018-05-09T12:40:09.700Z,19.10
2018-05-09T12:42:38.864Z,18.50
2018-05-09T12:45:07.175Z,18.50
2018-05-09T12:47:36.523Z,17.70
2018-05-09T12:50:05.121Z,18.30
2018-05-09T12:52:32.806Z,18.30
2018-05-09T12:55:00.362Z,19.30
2018-05-09T12:57:28.705Z,19.50
2018-05-09T12:59:56.282Z,19.50
2018-05-09T13:02:23.847Z,19.10
2018-05-09T13:04:51.435Z,18.30
2018-05-09T13:07:19.136Z,18.50
2018-05-09T13:09:46.638Z,18.80
2018-05-09T13:12:14.266Z,19.10
2018-05-09T13:14:48.792Z,18.80
2018-05-09T13:17:16.445Z,17.90
2018-05-09T13:19:44.110Z,17.70
2018-05-09T13:22:12.053Z,17.80
2018-05-09T13:24:39.855Z,17.70
2018-05-09T13:27:07.765Z,17.60
2018-05-09T13:29:35.956Z,17.70
2018-05-09T13:32:03.710Z,17.90
2018-05-09T13:34:31.314Z,18.00
2018-05-09T13:36:58.878Z,18.90
2018-05-09T13:39:26.429Z,19.90
2018-05-09T13:41:54.038Z,20.00
2018-05-09T13:44:21.600Z,19.70
2018-05-09T13:46:49.469Z,18.70
2018-05-09T13:49:17.029Z,18.60
2018-05-09T13:51:44.654Z,18.20
2018-05-09T13:54:13.069Z,18.40
2018-05-09T13:56:41.034Z,18.40
2018-05-09T13:59:08.887Z,19.60
2018-05-09T14:01:37.008Z,20.30
2018-05-09T14:04:04.727Z,20.60
2018-05-09T14:06:32.305Z,19.50
2018-05-09T14:08:59.866Z,18.90
2018-05-09T14:11:27.457Z,19.80
2018-05-09T14:13:55.009Z,19.80
2018-05-09T14:16:22.754Z,20.20
2018-05-09T14:18:51.515Z,20.90
2018-05-09T14:21:19.942Z,20.60
2018-05-09T14:23:48.416Z,21.00
2018-05-09T14:26:16.845Z,21.40
2018-05-09T14:28:44.523Z,21.40
2018-05-09T14:31:12.440Z,21.00
2018-05-09T14:33:40.341Z,20.30
2018-05-09T14:36:08.495Z,19.90
2018-05-09T14:38:37.517Z,19.30
2018-05-09T14:41:05.343Z,19.30
2018-05-09T14:43:32.946Z,19.60
2018-05-09T14:46:00.734Z,19.90
2018-05-09T14:48:28.378Z,19.60
2018-05-09T14:50:56.803Z,20.50
2018-05-09T14:53:24.362Z,20.50
2018-05-09T14:55:51.941Z,21.20
2018-05-09T14:58:20.088Z,21.10
2018-05-09T15:00:48.574Z,22.70
2018-05-09T15:03:16.931Z,23.10
2018-05-09T15:05:45.412Z,22.80
2018-05-09T15:08:13.075Z,22.70
2018-05-09T15:10:41.021Z,21.60
2018-05-09T15:13:09.297Z,20.10
2018-05-09T15:15:37.493Z,20.10
2018-05-09T15:18:05.595Z,20.50
2018-05-09T15:20:33.350Z,21.00
2018-05-09T15:23:01.680Z,20.70
2018-05-09T15:25:29.295Z,20.70
2018-05-09T15:27:56.854Z,20.80
2018-05-09T15:30:24.414Z,21.10
2018-05-09T15:32:52.284Z,20.80
2018-05-09T15:35:19.819Z,20.40
2018-05-09T15:37:48.166Z,20.90
2018-05-09T15:40:16.419Z,20.90
2018-05-09T15:42:43.990Z,21.50
2018-05-09T15:45:11.557Z,22.10
2018-05-09T15:47:39.396Z,22.60
2018-05-09T15:50:07.735Z,23.00
2018-05-09T15:52:35.406Z,23.00
2018-05-09T15:55:03.328Z,22.30
2018-05-09T15:57:31.811Z,20.60
2018-05-09T15:59:59.569Z,20.60
2018-05-09T16:02:28.102Z,19.30
2018-05-09T16:04:56.553Z,18.30
2018-05-09T16:07:24.161Z,18.30
2018-05-09T16:09:51.718Z,17.90
2018-05-09T16:12:19.278Z,17.80
2018-05-09T16:14:46.862Z,18.40
2018-05-09T16:17:14.427Z,19.30
2018-05-09T16:19:42.002Z,19.40
2018-05-09T16:22:09.639Z,18.80
2018-05-09T16:24:38.120Z,17.40
2018-05-09T16:27:05.724Z,17.40
2018-05-09T16:29:33.456Z,16.80
2018-05-09T16:32:01.290Z,16.60
2018-05-09T16:34:29.044Z,16.40
2018-05-09T16:36:56.640Z,16.50
2018-05-09T16:39:24.907Z,16.50
2018-05-09T16:41:52.470Z,16.60
2018-05-09T16:44:20.044Z,16.60
2018-05-09T16:46:47.615Z,16.60
2018-05-09T16:49:16.293Z,16.60
2018-05-09T16:51:44.629Z,16.60
2018-05-09T16:54:12.234Z,16.70
2018-05-09T16:56:40.209Z,17.00
2018-05-09T16:59:07.829Z,17.60
2018-05-09T17:01:35.512Z,18.40
2018-05-09T17:04:03.828Z,18.80
2018-05-09T17:06:31.402Z,18.80
2018-05-09T17:08:58.971Z,18.50
2018-05-09T17:11:27.318Z,18.10
2018-05-09T17:13:55.637Z,17.90
2018-05-09T17:16:23.224Z,17.90
2018-05-09T17:18:51.195Z,17.70
2018-05-09T17:21:34.541Z,17.60
2018-05-09T17:24:02.107Z,17.60
2018-05-09T17:26:29.691Z,17.50
2018-05-09T17:28:57.258Z,17.60
2018-05-09T17:31:24.847Z,17.70
2018-05-09T17:33:52.431Z,17.70
2018-05-09T17:36:20.120Z,17.70
2018-05-09T17:38:48.487Z,17.40
2018-05-09T17:41:16.056Z,17.40
2018-05-09T17:43:43.649Z,17.20
2018-05-09T17:46:12.068Z,17.20
2018-05-09T17:48:39.681Z,17.30
2018-05-09T17:51:08.214Z,17.10
2018-05-09T17:53:36.576Z,17.80
2018-05-09T17:56:04.137Z,17.80
2018-05-09T17:58:31.844Z,18.20
2018-05-09T18:00:59.443Z,18.20
2018-05-09T18:03:27.939Z,18.60
2018-05-09T18:05:55.839Z,18.60
2018-05-09T18:08:23.929Z,18.60
2018-05-09T18:10:52.739Z,18.50
2018-05-09T18:13:21.722Z,18.00
2018-05-09T18:15:49.449Z,18.00
2018-05-09T18:18:17.074Z,17.70
2018-05-09T18:20:44.683Z,17.40
2018-05-09T18:23:12.279Z,17.20
2018-05-09T18:25:40.012Z,17.10
2018-05-09T18:28:07.671Z,17.30
2018-05-09T18:30:35.538Z,17.50
2018-05-09T18:33:03.309Z,17.50
2018-05-09T18:35:31.379Z,17.30
2018-05-09T18:37:59.011Z,17.00
2018-05-09T18:40:27.362Z,16.40
2018-05-09T18:42:54.921Z,16.40
2018-05-09T18:45:23.276Z,16.20
2018-05-09T18:47:50.845Z,16.20
2018-05-09T18:50:18.435Z,16.10
2018-05-09T18:52:46.034Z,16.10
2018-05-09T18:55:14.383Z,16.30
2018-05-09T18:57:41.939Z,16.30
2018-05-09T19:00:09.534Z,16.20
2018-05-09T19:02:37.111Z,16.30
2018-05-09T19:05:04.750Z,16.30
2018-05-09T19:07:32.393Z,16.20
2018-05-09T19:10:00.079Z,16.10
2018-05-09T19:12:27.751Z,15.90
2018-05-09T19:14:55.318Z,15.80
2018-05-09T19:17:22.905Z,15.70
2018-05-09T19:19:50.470Z,15.70
2018-05-09T19:22:18.057Z,15.60
2018-05-09T19:24:45.653Z,15.50
2018-05-09T19:27:13.283Z,15.50
2018-05-09T19:29:40.974Z,15.50
2018-05-09T19:32:08.708Z,15.50
2018-05-09T19:34:37.655Z,15.40
2018-05-09T19:37:05.506Z,15.40
2018-05-09T19:39:33.423Z,15.40
2018-05-09T19:42:01.090Z,15.20
2018-05-09T19:44:28.673Z,15.10
2018-05-09T19:46:56.252Z,15.00
2018-05-09T19:49:23.841Z,15.00
2018-05-09T19:51:52.189Z,14.90
2018-05-09T19:54:19.810Z,14.90
2018-05-09T19:56:47.363Z,14.90
2018-05-09T19:59:14.950Z,15.00
2018-05-09T20:01:43.304Z,15.00
2018-05-09T20:04:10.891Z,14.90
2018-05-09T20:06:38.545Z,14.80
2018-05-09T20:09:06.195Z,14.80
2018-05-09T20:11:33.896Z,14.90
2018-05-09T20:14:02.463Z,14.80
2018-05-09T20:16:30.563Z,14.80
2018-05-09T20:18:58.406Z,14.80
2018-05-09T20:21:26.010Z,14.70
2018-05-09T20:23:53.614Z,14.60
2018-05-09T20:26:21.278Z,14.70
2018-05-09T20:28:54.696Z,14.70
2018-05-09T20:31:39.822Z,14.70
2018-05-09T20:34:07.438Z,14.60
2018-05-09T20:36:35.039Z,14.60
2018-05-09T20:39:02.626Z,14.60
2018-05-09T20:41:30.335Z,14.60
2018-05-09T20:43:57.957Z,14.50
2018-05-09T20:46:25.594Z,14.50
2018-05-09T20:48:53.236Z,14.50
2018-05-09T20:51:32.925Z,14.50
2018-05-09T20:54:00.780Z,14.50
2018-05-09T20:56:28.558Z,14.50
2018-05-09T20:58:56.243Z,14.50
2018-05-09T21:01:35.660Z,14.50
2018-05-09T21:04:03.287Z,14.50
2018-05-09T21:06:31.778Z,14.50
2018-05-09T21:08:59.389Z,14.50
2018-05-09T21:11:27.019Z,14.50
2018-05-09T21:13:54.682Z,14.40
2018-05-09T21:16:23.209Z,14.40
2018-05-09T21:18:50.826Z,14.30
2018-05-09T21:21:19.092Z,14.30
2018-05-09T21:23:46.686Z,14.30
2018-05-09T21:26:14.248Z,14.30
2018-05-09T21:28:41.841Z,14.30
2018-05-09T21:31:09.410Z,14.40
2018-05-09T21:33:37.002Z,14.20
2018-05-09T21:36:05.339Z,14.30
2018-05-09T21:38:32.997Z,14.30
2018-05-09T21:41:00.634Z,14.20
2018-05-09T21:43:29.035Z,14.10
2018-05-09T21:45:56.794Z,14.10
2018-05-09T21:48:25.634Z,13.90
2018-05-09T21:50:53.436Z,13.90
2018-05-09T21:53:21.080Z,13.90
2018-05-09T21:55:48.734Z,13.90
2018-05-09T21:58:16.328Z,13.80
2018-05-09T22:00:43.982Z,13.80
2018-05-09T22:03:12.323Z,13.80
2018-05-09T22:05:39.958Z,13.80
2018-05-09T22:08:07.538Z,13.80
2018-05-09T22:10:35.134Z,13.90
2018-05-09T22:13:02.747Z,13.90
2018-05-09T22:15:30.425Z,13.90
2018-05-09T22:17:58.899Z,13.90
2018-05-09T22:20:26.602Z,13.90
2018-05-09T22:22:54.334Z,13.90
2018-05-09T22:25:22.093Z,13.90
2018-05-09T22:27:49.721Z,13.90
2018-05-09T22:30:18.067Z,13.80
2018-05-09T22:32:45.665Z,13.80
2018-05-09T22:35:13.242Z,13.80
2018-05-09T22:37:40.839Z,13.80
2018-05-09T22:40:09.183Z,13.80
2018-05-09T22:42:36.774Z,13.70
2018-05-09T22:45:04.416Z,13.80
2018-05-09T22:47:32.023Z,13.90
2018-05-09T22:49:59.654Z,13.80
2018-05-09T22:52:27.294Z,13.80
2018-05-09T22:54:55.877Z,13.80
2018-05-09T22:57:23.638Z,13.80
2018-05-09T22:59:51.255Z,13.80
2018-05-09T23:02:18.875Z,13.80
2018-05-09T23:04:46.450Z,13.80
2018-05-09T23:07:14.026Z,13.70
2018-05-09T23:09:41.610Z,13.50
2018-05-09T23:12:09.186Z,13.50
2018-05-09T23:14:37.546Z,13.60
2018-05-09T23:17:05.196Z,13.60
2018-05-09T23:19:32.857Z,13.60
2018-05-09T23:22:00.429Z,13.60
2018-05-09T23:24:28.021Z,13.60
2018-05-09T23:26:55.598Z,13.50
2018-05-09T23:29:23.191Z,13.50
2018-05-09T23:31:50.779Z,13.60
2018-05-09T23:34:18.373Z,13.60
2018-05-09T23:36:46.744Z,13.50
2018-05-09T23:39:15.150Z,13.40
2018-05-09T23:41:42.799Z,13.40
2018-05-09T23:44:11.255Z,13.40
2018-05-09T23:46:39.142Z,13.40
2018-05-09T23:49:07.635Z,13.40
2018-05-09T23:51:35.311Z,13.40
2018-05-09T23:54:02.922Z,13.50
2018-05-09T23:56:30.494Z,13.40
2018-05-09T23:58:58.066Z,13.30
